Time;durP1;ratioP1;P1;durP2;ratioP2;P2;SDS_P1;SDS_P2;PMS_P1;PMS_P2;Temp;Humidity;BMP_temperature;BMP_pressure;BME280_temperature;BME280_humidity;BME280_pressure;Samples;Min_cycle;Max_cycle;Signal;HPM_P1;HPM_P2
2023/09/05 00:02:24;;;;;;;20.13;6.00;;;22.00;65.70;;;;;;5088612;28;20027;-47
2023/09/05 00:04:54;;;;;;;14.05;5.22;;;22.00;65.80;;;;;;5090582;28;20449;-55
2023/09/05 00:07:20;;;;;;;15.43;5.38;;;22.00;65.80;;;;;;5092778;28;20024;-50
2023/09/05 00:09:46;;;;;;;17.15;5.60;;;22.00;65.80;;;;;;5092635;28;20027;-47
2023/09/05 00:12:11;;;;;;;17.63;5.35;;;22.00;65.80;;;;;;5092695;28;20020;-50
2023/09/05 00:14:37;;;;;;;18.25;5.82;;;22.00;65.80;;;;;;5092333;28;20027;-55
2023/09/05 00:17:03;;;;;;;13.93;5.07;;;22.00;65.80;;;;;;5092630;28;20506;-54
2023/09/05 00:19:29;;;;;;;10.93;5.63;;;22.00;65.80;;;;;;5091213;28;20036;-50
2023/09/05 00:21:55;;;;;;;11.88;5.50;;;22.00;65.80;;;;;;5092540;28;20033;-52
2023/09/05 00:24:30;;;;;;;12.80;5.55;;;22.00;65.80;;;;;;5092160;28;20578;-49
2023/09/05 00:27:10;;;;;;;15.43;5.68;;;22.00;65.80;;;;;;5091348;28;20028;-54
2023/09/05 00:29:36;;;;;;;11.80;5.43;;;22.00;65.80;;;;;;5092368;28;20038;-47
2023/09/05 00:32:03;;;;;;;15.02;5.35;;;22.00;65.90;;;;;;5092402;28;20020;-47
2023/09/05 00:34:31;;;;;;;10.73;5.00;;;22.00;65.80;;;;;;5073831;28;20079;-48
2023/09/05 00:37:02;;;;;;;11.02;4.75;;;22.00;65.80;;;;;;5092245;28;20028;-49
2023/09/05 00:39:28;;;;;;;11.98;4.57;;;22.00;65.80;;;;;;5090817;28;20028;-46
2023/09/05 00:41:58;;;;;;;8.82;4.90;;;22.00;65.80;;;;;;5092222;28;20032;-51
2023/09/05 00:44:24;;;;;;;15.60;4.93;;;22.00;65.90;;;;;;5091764;28;20032;-49
2023/09/05 00:46:54;;;;;;;14.73;5.78;;;22.00;65.90;;;;;;5091919;28;20029;-50
2023/09/05 00:49:27;;;;;;;12.73;5.60;;;22.00;65.90;;;;;;5092005;28;20024;-49
2023/09/05 00:52:00;;;;;;;13.05;5.63;;;22.00;65.90;;;;;;5091042;28;20513;-52
2023/09/05 00:54:27;;;;;;;14.52;6.20;;;22.00;66.00;;;;;;5091751;28;20036;-50
2023/09/05 00:56:54;;;;;;;14.70;5.72;;;22.00;66.10;;;;;;5092018;28;20030;-52
2023/09/05 00:59:21;;;;;;;13.02;5.57;;;22.00;66.30;;;;;;5091510;28;20051;-48
2023/09/05 01:01:48;;;;;;;15.45;5.63;;;22.00;66.20;;;;;;5091877;28;20040;-48
2023/09/05 01:04:14;;;;;;;14.05;5.38;;;22.00;66.20;;;;;;5090232;28;20082;-50
2023/09/05 01:06:49;;;;;;;12.27;5.00;;;22.00;66.20;;;;;;5091824;28;20027;-47
2023/09/05 01:09:46;;;;;;;14.32;5.50;;;22.00;66.20;;;;;;5090832;28;20103;-46
2023/09/05 01:12:12;;;;;;;10.10;5.03;;;22.00;66.20;;;;;;5090725;28;20474;-47
2023/09/05 01:14:38;;;;;;;10.10;4.68;;;22.00;66.20;;;;;;5090239;28;20099;-46
2023/09/05 01:17:05;;;;;;;10.43;4.50;;;22.00;66.10;;;;;;5090584;28;20028;-49
2023/09/05 01:19:36;;;;;;;12.50;4.70;;;22.00;66.10;;;;;;5091624;28;20039;-46
2023/09/05 01:22:09;;;;;;;10.27;4.28;;;22.10;66.10;;;;;;5090533;28;20479;-48
2023/09/05 01:24:35;;;;;;;11.10;4.95;;;22.00;66.00;;;;;;5090163;28;20061;-47
2023/09/05 01:27:02;;;;;;;12.23;5.30;;;22.10;66.10;;;;;;5091655;28;20027;-49
2023/09/05 01:29:35;;;;;;;11.00;4.57;;;22.10;66.10;;;;;;5090295;28;20119;-50
2023/09/05 01:32:03;;;;;;;10.23;4.82;;;22.10;66.00;;;;;;5090571;28;20498;-46
2023/09/05 01:34:30;;;;;;;11.30;4.40;;;22.00;65.90;;;;;;5091270;28;20031;-46
2023/09/05 01:36:56;;;;;;;10.07;4.65;;;22.00;65.90;;;;;;5090301;28;20036;-49
2023/09/05 01:39:22;;;;;;;10.07;4.53;;;22.10;65.90;;;;;;5091423;28;20085;-49
2023/09/05 01:41:48;;;;;;;10.70;4.40;;;22.10;66.00;;;;;;5091539;28;20060;-48
2023/09/05 01:44:15;;;;;;;10.80;4.80;;;22.00;65.90;;;;;;5073063;28;20560;-47
2023/09/05 01:46:41;;;;;;;7.60;4.15;;;22.00;65.90;;;;;;5090238;28;20024;-48
2023/09/05 01:49:07;;;;;;;10.57;4.88;;;22.10;65.90;;;;;;5091587;28;20020;-56
2023/09/05 01:51:33;;;;;;;8.38;4.07;;;22.10;65.90;;;;;;5090173;28;20034;-55
2023/09/05 01:53:59;;;;;;;9.82;3.97;;;22.10;65.90;;;;;;5091291;28;20099;-55
2023/09/05 01:56:25;;;;;;;7.85;3.72;;;22.10;65.90;;;;;;5091399;28;20167;-53
2023/09/05 01:58:51;;;;;;;10.02;4.13;;;22.10;65.90;;;;;;5090073;28;20023;-56
2023/09/05 02:01:17;;;;;;;6.95;3.70;;;22.10;66.00;;;;;;5090137;28;20032;-56
2023/09/05 02:03:42;;;;;;;8.80;4.28;;;22.00;65.80;;;;;;5090902;28;20055;-55
2023/09/05 02:06:10;;;;;;;9.00;4.10;;;22.00;65.80;;;;;;5091216;28;20026;-53
2023/09/05 02:08:35;;;;;;;7.32;3.78;;;22.00;65.90;;;;;;5090019;28;20028;-53
2023/09/05 02:11:01;;;;;;;7.82;3.78;;;22.00;65.90;;;;;;5092900;28;20021;-56
2023/09/05 02:13:29;;;;;;;7.30;3.72;;;22.00;65.90;;;;;;5095188;28;20060;-47
2023/09/05 02:15:55;;;;;;;9.07;4.03;;;22.00;65.90;;;;;;5095002;28;20042;-53
2023/09/05 02:18:21;;;;;;;7.88;3.88;;;22.00;65.90;;;;;;5093589;28;20114;-49
2023/09/05 02:20:46;;;;;;;7.68;3.92;;;22.00;65.90;;;;;;5094847;28;20024;-49
2023/09/05 02:23:12;;;;;;;6.93;3.58;;;22.00;65.80;;;;;;5094782;28;20039;-51
2023/09/05 02:25:38;;;;;;;8.90;3.90;;;22.00;65.80;;;;;;5094742;28;20028;-53
2023/09/05 02:28:05;;;;;;;10.10;3.95;;;22.00;65.80;;;;;;5093695;28;20029;-49
2023/09/05 02:30:31;;;;;;;6.93;3.30;;;22.00;65.90;;;;;;5094814;28;20436;-52
2023/09/05 02:32:57;;;;;;;7.80;3.35;;;22.00;65.80;;;;;;5093838;28;20071;-47
2023/09/05 02:35:27;;;;;;;6.50;3.33;;;22.00;65.80;;;;;;5094301;28;20020;-48
2023/09/05 02:37:54;;;;;;;8.05;3.25;;;22.00;65.80;;;;;;5094395;28;20066;-50
2023/09/05 02:40:20;;;;;;;7.90;3.67;;;22.00;65.80;;;;;;5094209;28;20050;-47
2023/09/05 02:42:46;;;;;;;7.90;3.40;;;22.00;65.80;;;;;;5076523;28;20032;-49
2023/09/05 02:45:13;;;;;;;9.25;3.63;;;22.00;65.80;;;;;;5092914;28;20028;-47
2023/09/05 02:47:40;;;;;;;4.97;3.10;;;21.90;65.70;;;;;;5093007;28;20078;-50
2023/09/05 02:50:06;;;;;;;8.73;3.47;;;21.90;65.70;;;;;;5094395;28;20031;-49
2023/09/05 02:52:33;;;;;;;5.03;2.97;;;22.00;65.80;;;;;;5094518;28;20023;-47
2023/09/05 02:54:59;;;;;;;7.13;3.60;;;22.00;66.30;;;;;;5092746;28;20078;-50
2023/09/05 02:57:26;;;;;;;5.93;3.40;;;21.90;65.70;;;;;;5093036;28;20032;-50
2023/09/05 02:59:52;;;;;;;4.70;3.10;;;21.90;65.60;;;;;;5093031;28;20478;-49
2023/09/05 03:02:18;;;;;;;7.65;3.10;;;21.90;65.60;;;;;;5094027;28;20020;-49
2023/09/05 03:04:44;;;;;;;5.60;3.20;;;21.90;65.60;;;;;;5092293;28;20042;-54
2023/09/05 03:07:10;;;;;;;6.13;3.00;;;22.00;65.60;;;;;;5091595;28;20024;-46
2023/09/05 03:09:37;;;;;;;7.68;3.30;;;22.00;65.60;;;;;;5092552;28;20459;-47
2023/09/05 03:12:05;;;;;;;8.77;3.28;;;22.00;65.60;;;;;;5091294;28;20023;-47
2023/09/05 03:14:32;;;;;;;5.95;3.20;;;22.00;65.50;;;;;;5092523;28;20456;-47
2023/09/05 03:16:57;;;;;;;5.65;3.35;;;22.00;65.50;;;;;;5093672;28;20036;-47
2023/09/05 03:19:23;;;;;;;6.25;3.53;;;22.00;65.50;;;;;;5092558;28;20069;-50
2023/09/05 03:21:50;;;;;;;7.03;3.45;;;22.00;65.50;;;;;;5093597;28;20036;-47
2023/09/05 03:24:18;;;;;;;9.00;3.65;;;22.00;65.50;;;;;;5092092;28;20105;-47
2023/09/05 03:26:48;;;;;;;8.10;3.42;;;22.00;65.50;;;;;;5092465;28;20024;-47
2023/09/05 03:29:14;;;;;;;7.40;3.33;;;22.00;65.50;;;;;;5092329;28;20024;-47
2023/09/05 03:31:41;;;;;;;6.65;3.35;;;22.00;65.50;;;;;;5092170;28;20039;-49
2023/09/05 03:34:08;;;;;;;5.82;3.13;;;22.00;65.40;;;;;;5092120;28;20035;-47
2023/09/05 03:36:35;;;;;;;6.53;3.30;;;22.00;65.40;;;;;;5092360;28;20490;-48
2023/09/05 03:39:01;;;;;;;5.43;3.45;;;22.00;65.50;;;;;;5092027;28;20344;-46
2023/09/05 03:41:28;;;;;;;5.13;3.03;;;22.00;65.40;;;;;;5093426;28;20039;-49
2023/09/05 03:43:54;;;;;;;6.05;3.17;;;22.00;65.30;;;;;;5092908;28;20039;-49
2023/09/05 03:46:20;;;;;;;7.35;3.50;;;22.00;65.30;;;;;;5093203;28;20020;-50
2023/09/05 03:48:47;;;;;;;7.72;3.00;;;22.00;65.40;;;;;;5093279;28;20027;-49
2023/09/05 03:51:13;;;;;;;5.45;2.88;;;22.00;65.30;;;;;;5093226;28;20024;-47
2023/09/05 03:53:39;;;;;;;5.35;3.10;;;22.00;65.40;;;;;;5092923;28;20047;-46
2023/09/05 03:56:05;;;;;;;6.22;3.30;;;22.00;65.30;;;;;;5091938;28;20024;-49
2023/09/05 03:58:31;;;;;;;4.93;2.85;;;21.90;65.50;;;;;;5091575;28;20034;-48
2023/09/05 04:01:02;;;;;;;10.80;3.45;;;21.90;65.60;;;;;;5091754;28;20028;-50
2023/09/05 04:03:27;;;;;;;7.38;3.45;;;21.90;65.50;;;;;;5092586;28;20028;-49
2023/09/05 04:05:53;;;;;;;5.63;3.30;;;21.90;65.40;;;;;;5093025;28;20073;-55
2023/09/05 04:08:19;;;;;;;6.50;3.20;;;21.90;65.40;;;;;;5092825;28;20016;-55
2023/09/05 04:10:45;;;;;;;6.22;3.00;;;21.90;65.40;;;;;;5092793;28;20028;-56
2023/09/05 04:13:10;;;;;;;5.35;3.15;;;21.90;65.30;;;;;;5092435;28;20032;-56
2023/09/05 04:15:37;;;;;;;5.35;3.28;;;21.90;65.30;;;;;;5074752;28;20462;-54
2023/09/05 04:18:04;;;;;;;8.43;3.40;;;21.90;65.40;;;;;;5091382;28;20043;-55
2023/09/05 04:20:31;;;;;;;8.77;3.80;;;21.90;65.30;;;;;;5091448;28;20028;-55
2023/09/05 04:22:57;;;;;;;6.53;3.30;;;21.90;65.30;;;;;;5091318;28;20038;-53
2023/09/05 04:25:26;;;;;;;7.82;3.58;;;21.90;65.30;;;;;;5092228;28;20099;-52
2023/09/05 04:27:51;;;;;;;5.47;3.37;;;21.90;65.40;;;;;;5086671;28;20055;-56
2023/09/05 04:30:17;;;;;;;6.25;3.80;;;21.90;65.40;;;;;;5088421;28;20052;-52
2023/09/05 04:32:43;;;;;;;9.32;4.28;;;21.90;65.30;;;;;;5090202;28;20028;-55
2023/09/05 04:35:11;;;;;;;8.45;4.30;;;21.90;65.30;;;;;;5086689;28;20052;-50
2023/09/05 04:37:37;;;;;;;8.07;3.95;;;21.90;65.40;;;;;;5091941;28;20060;-52
2023/09/05 04:40:07;;;;;;;6.68;4.10;;;21.90;65.30;;;;;;5089626;28;20024;-50
2023/09/05 04:42:33;;;;;;;5.47;3.65;;;21.90;65.30;;;;;;5090972;28;20032;-47
2023/09/05 04:44:58;;;;;;;6.47;3.63;;;21.90;65.30;;;;;;5091684;28;20073;-52
2023/09/05 04:47:29;;;;;;;5.82;3.35;;;21.90;65.30;;;;;;5092145;28;20092;-49
2023/09/05 04:49:57;;;;;;;7.93;3.88;;;21.90;65.20;;;;;;5092488;28;20028;-47
2023/09/05 04:52:26;;;;;;;6.97;3.67;;;21.90;65.30;;;;;;5092104;28;20028;-47
2023/09/05 04:54:54;;;;;;;5.30;3.50;;;21.90;65.30;;;;;;5091498;28;20105;-46
2023/09/05 04:57:19;;;;;;;6.30;3.75;;;21.90;65.20;;;;;;5090917;28;20028;-48
2023/09/05 04:59:51;;;;;;;6.68;3.88;;;21.90;65.20;;;;;;5091884;28;20105;-47
2023/09/05 05:02:17;;;;;;;8.50;4.40;;;21.90;65.20;;;;;;5091944;28;20059;-47
2023/09/05 05:04:43;;;;;;;8.10;4.38;;;21.90;65.20;;;;;;5091544;28;20105;-48
2023/09/05 05:07:10;;;;;;;7.45;4.70;;;21.90;65.10;;;;;;5091902;28;20478;-46
2023/09/05 05:09:37;;;;;;;6.97;4.03;;;21.90;65.20;;;;;;5091813;28;20032;-47
2023/09/05 05:12:04;;;;;;;6.47;3.53;;;21.90;65.20;;;;;;5091868;28;20020;-47
2023/09/05 05:14:29;;;;;;;7.07;3.80;;;21.90;65.30;;;;;;5091423;28;20031;-46
2023/09/05 05:16:55;;;;;;;7.47;4.03;;;21.90;65.20;;;;;;5091837;28;20024;-51
2023/09/05 05:19:21;;;;;;;8.27;4.57;;;21.90;65.10;;;;;;5091802;28;20454;-51
2023/09/05 05:21:48;;;;;;;6.43;3.92;;;22.00;65.20;;;;;;5091736;28;20028;-53
2023/09/05 05:24:15;;;;;;;8.50;4.05;;;21.90;65.10;;;;;;5091744;28;20024;-52
2023/09/05 05:26:41;;;;;;;8.13;4.00;;;22.00;65.10;;;;;;5091628;28;20020;-52
2023/09/05 05:29:07;;;;;;;5.88;3.67;;;22.00;65.20;;;;;;5091459;28;20403;-48
2023/09/05 05:31:37;;;;;;;6.95;3.85;;;22.00;65.10;;;;;;5091591;28;20281;-48
2023/09/05 05:34:03;;;;;;;10.35;4.32;;;22.00;65.10;;;;;;5091300;28;20031;-53
2023/09/05 05:36:29;;;;;;;6.80;3.78;;;22.00;65.10;;;;;;5091572;28;20460;-52
2023/09/05 05:38:59;;;;;;;6.45;3.85;;;22.00;65.20;;;;;;5091423;28;20396;-52
2023/09/05 05:41:26;;;;;;;5.75;3.70;;;22.00;65.10;;;;;;5091554;28;20028;-49
2023/09/05 05:43:52;;;;;;;9.20;3.90;;;22.00;65.10;;;;;;5090932;28;20480;-50
2023/09/05 05:46:18;;;;;;;8.68;3.78;;;22.00;65.10;;;;;;5094856;28;20028;-49
2023/09/05 05:48:45;;;;;;;5.25;3.63;;;22.00;65.00;;;;;;5095723;28;20024;-51
2023/09/05 05:51:12;;;;;;;6.60;3.72;;;22.00;65.00;;;;;;5095537;28;20082;-46
2023/09/05 05:53:38;;;;;;;7.05;3.65;;;22.00;65.00;;;;;;5095140;28;20024;-49
2023/09/05 05:56:04;;;;;;;8.20;4.15;;;22.00;65.10;;;;;;5095255;28;20077;-50
2023/09/05 05:58:30;;;;;;;5.38;3.55;;;22.00;65.00;;;;;;5095462;28;20036;-47
2023/09/05 06:00:56;;;;;;;7.05;3.80;;;22.00;65.10;;;;;;5095339;28;20162;-50
2023/09/05 06:03:23;;;;;;;6.10;3.85;;;22.00;65.00;;;;;;5094882;28;20020;-52
2023/09/05 06:05:50;;;;;;;8.38;3.90;;;22.00;65.10;;;;;;5095205;28;20031;-51
2023/09/05 06:08:16;;;;;;;9.32;4.43;;;22.00;65.10;;;;;;5095031;28;20032;-53
2023/09/05 06:10:43;;;;;;;8.35;4.10;;;22.00;65.10;;;;;;5095098;28;20016;-53
2023/09/05 06:13:09;;;;;;;7.97;4.03;;;22.00;65.10;;;;;;5095090;28;20051;-52
2023/09/05 06:15:35;;;;;;;7.25;4.03;;;22.00;65.00;;;;;;5093636;28;20077;-53
2023/09/05 06:18:02;;;;;;;7.20;3.88;;;22.00;65.10;;;;;;5095059;28;20119;-53
2023/09/05 06:20:32;;;;;;;11.18;4.20;;;22.00;65.70;;;;;;5095005;28;20035;-50
2023/09/05 06:22:58;;;;;;;9.10;4.32;;;22.00;65.00;;;;;;5094976;28;20058;-49
2023/09/05 06:25:25;;;;;;;8.70;4.07;;;22.00;65.10;;;;;;5096197;28;20035;-52
2023/09/05 06:27:51;;;;;;;9.07;4.45;;;22.00;65.10;;;;;;5096785;28;20020;-56
2023/09/05 06:30:17;;;;;;;7.75;4.35;;;22.00;65.60;;;;;;5094776;28;20070;-55
2023/09/05 06:32:43;;;;;;;10.68;4.63;;;22.00;65.00;;;;;;5094629;28;20028;-53
2023/09/05 06:35:09;;;;;;;7.50;4.18;;;22.00;65.00;;;;;;5094201;28;20108;-53
2023/09/05 06:37:36;;;;;;;8.45;4.32;;;21.90;65.00;;;;;;5094425;28;20028;-56
2023/09/05 06:40:09;;;;;;;10.50;4.45;;;21.90;65.10;;;;;;5094529;28;20111;-56
2023/09/05 06:42:42;;;;;;;9.38;4.55;;;22.00;65.10;;;;;;5094521;28;20028;-54
2023/09/05 06:45:09;;;;;;;7.65;4.20;;;22.00;65.10;;;;;;5094368;28;20119;-55
2023/09/05 06:47:35;;;;;;;7.45;4.38;;;21.90;65.10;;;;;;5094437;28;20020;-53
2023/09/05 06:50:05;;;;;;;9.95;4.35;;;21.90;65.10;;;;;;5094536;28;20024;-56
2023/09/05 06:52:33;;;;;;;;;;;21.90;65.00;;;;;;5094725;28;20077;-55
2023/09/05 06:54:59;;;;;;;7.93;4.00;;;22.00;65.10;;;;;;5093865;28;19908;-56
2023/09/05 07:01:13;;;;;;;7.05;4.45;;;21.90;65.10;;;;;;5060931;23;20047;-50
2023/09/05 07:03:38;;;;;;;9.85;4.80;;;21.90;65.10;;;;;;4936459;29;20040;-51
2023/09/05 07:06:04;;;;;;;7.95;4.78;;;21.90;65.00;;;;;;4935565;29;20019;-50
2023/09/05 07:08:31;;;;;;;12.63;5.80;;;21.90;65.00;;;;;;4936552;29;20057;-54
2023/09/05 07:10:57;;;;;;;12.65;6.18;;;21.90;65.00;;;;;;4904126;29;20024;-51
2023/09/05 07:13:24;;;;;;;14.85;6.68;;;22.00;65.10;;;;;;4949674;23;20333;-46
2023/09/05 07:15:51;;;;;;;11.55;5.85;;;22.00;65.10;;;;;;4926610;29;20480;-45
2023/09/05 07:18:17;;;;;;;18.67;6.43;;;22.00;65.10;;;;;;4930985;29;20055;-46
2023/09/05 07:20:43;;;;;;;20.70;6.20;;;22.00;65.30;;;;;;4932322;29;20684;-46
2023/09/05 07:23:09;;;;;;;19.77;5.65;;;22.10;65.40;;;;;;4928647;28;20036;-53
2023/09/05 07:25:38;;;;;;;11.57;5.28;;;22.10;64.70;;;;;;4937830;28;20020;-49
2023/09/05 07:28:05;;;;;;;16.02;5.05;;;22.10;65.00;;;;;;4940121;29;20051;-52
2023/09/05 07:30:34;;;;;;;12.65;4.30;;;22.20;64.60;;;;;;4926925;29;20123;-47
2023/09/05 07:33:00;;;;;;;10.82;5.05;;;22.20;64.40;;;;;;4932066;28;20027;-49
2023/09/05 07:35:26;;;;;;;10.18;4.53;;;22.20;64.30;;;;;;4923465;29;20028;-49
2023/09/05 07:37:52;;;;;;;8.68;4.13;;;22.20;64.60;;;;;;4938192;29;20037;-49
2023/09/05 07:40:17;;;;;;;10.98;4.63;;;22.20;64.50;;;;;;4926671;29;20075;-49
2023/09/05 07:42:43;;;;;;;9.85;4.45;;;22.20;64.70;;;;;;4938750;28;20035;-49
2023/09/05 07:45:10;;;;;;;10.90;4.10;;;22.30;64.40;;;;;;4924993;29;20031;-50
2023/09/05 07:47:36;;;;;;;6.90;3.75;;;22.20;64.20;;;;;;4934512;29;20070;-49
2023/09/05 07:50:02;;;;;;;10.18;4.15;;;22.30;64.30;;;;;;4927170;29;20055;-57
2023/09/05 07:52:28;;;;;;;9.38;4.15;;;22.30;64.30;;;;;;4930809;29;20049;-52
2023/09/05 07:54:53;;;;;;;11.05;4.00;;;22.30;64.40;;;;;;4929093;28;20062;-53
2023/09/05 07:57:19;;;;;;;10.10;4.20;;;22.30;64.40;;;;;;4929787;29;20043;-50
2023/09/05 07:59:45;;;;;;;9.20;3.90;;;22.30;64.10;;;;;;4930254;28;20138;-51
2023/09/05 08:02:11;;;;;;;7.22;4.22;;;22.30;64.10;;;;;;4928816;29;20068;-52
2023/09/05 08:04:38;;;;;;;8.55;4.18;;;22.30;64.20;;;;;;4931746;28;20031;-50
2023/09/05 08:07:06;;;;;;;15.35;4.65;;;22.40;65.30;;;;;;4926444;29;20162;-50
2023/09/05 08:09:33;;;;;;;14.50;4.18;;;22.40;65.60;;;;;;4933913;28;20021;-52
2023/09/05 08:12:01;;;;;;;10.23;4.40;;;22.40;65.70;;;;;;4926396;29;20043;-50
2023/09/05 08:14:27;;;;;;;9.27;4.53;;;22.50;66.00;;;;;;4932855;28;20128;-50
2023/09/05 08:16:53;;;;;;;8.05;4.10;;;22.50;66.10;;;;;;4927724;29;20190;-49
2023/09/05 08:19:19;;;;;;;15.65;5.10;;;22.60;65.50;;;;;;4934452;29;20036;-49
2023/09/05 08:21:45;;;;;;;17.25;3.90;;;22.60;66.90;;;;;;4925072;29;20038;-49
2023/09/05 08:24:10;;;;;;;12.48;4.40;;;22.60;66.10;;;;;;4933310;28;20039;-49
2023/09/05 08:26:36;;;;;;;8.73;3.85;;;22.60;64.60;;;;;;4928687;29;20063;-49
2023/09/05 08:29:03;;;;;;;8.27;3.70;;;22.60;64.50;;;;;;4936734;29;20544;-49
2023/09/05 08:31:32;;;;;;;9.93;3.58;;;22.60;64.20;;;;;;4925734;29;20031;-53
2023/09/05 08:33:59;;;;;;;6.45;3.50;;;22.70;64.20;;;;;;4930860;28;20032;-54
2023/09/05 08:36:24;;;;;;;8.40;3.30;;;22.70;63.90;;;;;;4928579;29;20038;-55
2023/09/05 08:38:50;;;;;;;7.50;3.22;;;22.70;63.70;;;;;;4932083;29;20035;-55
2023/09/05 08:41:17;;;;;;;8.95;3.15;;;22.70;63.60;;;;;;4924038;29;20557;-54
2023/09/05 08:43:44;;;;;;;5.90;3.22;;;22.70;63.60;;;;;;4929017;28;20047;-53
2023/09/05 08:46:12;;;;;;;8.45;3.75;;;22.70;63.40;;;;;;4918735;29;20027;-48
2023/09/05 08:48:37;;;;;;;8.02;3.20;;;22.70;63.10;;;;;;4937614;29;20028;-45
2023/09/05 08:51:07;;;;;;;10.68;3.45;;;22.80;63.10;;;;;;4926485;29;20184;-51
2023/09/05 08:53:39;;;;;;;;;;;22.70;63.00;;;;;;4929500;28;20100;-51
2023/09/05 08:56:06;;;;;;;5.80;3.13;;;22.80;63.00;;;;;;4926273;29;20325;-45
2023/09/05 08:58:33;;;;;;;9.35;3.30;;;22.80;63.10;;;;;;4935811;29;20028;-55
2023/09/05 09:00:59;;;;;;;9.15;3.17;;;22.80;63.00;;;;;;4926876;29;20168;-49
2023/09/05 09:03:26;;;;;;;5.22;3.15;;;22.80;63.10;;;;;;4929731;28;20585;-48
2023/09/05 09:05:52;;;;;;;4.38;2.67;;;22.80;62.60;;;;;;4924058;29;20141;-51
2023/09/05 09:08:18;;;;;;;7.28;3.38;;;22.80;62.50;;;;;;4936371;29;20055;-49
2023/09/05 09:11:05;;;;;;;9.65;3.35;;;22.90;62.70;;;;;;4927403;29;20035;-55
2023/09/05 09:13:31;;;;;;;7.53;3.40;;;22.90;61.60;;;;;;4928845;28;20446;-52
2023/09/05 09:15:59;;;;;;;11.15;3.38;;;22.90;61.90;;;;;;4925765;29;20078;-50
2023/09/05 09:18:26;;;;;;;7.93;3.15;;;22.90;62.30;;;;;;4935651;29;20019;-50
2023/09/05 09:20:52;;;;;;;5.07;3.00;;;22.90;61.80;;;;;;4936998;29;20114;-52
2023/09/05 09:23:26;;;;;;;7.47;3.10;;;22.90;61.80;;;;;;4927139;28;20750;-46
2023/09/05 09:25:54;;;;;;;5.57;3.20;;;22.90;61.50;;;;;;4926978;29;20024;-45
2023/09/05 09:28:32;;;;;;;5.32;3.10;;;23.00;61.20;;;;;;4935313;29;20365;-46
2023/09/05 09:31:11;;;;;;;9.07;3.03;;;23.00;61.00;;;;;;4928204;29;20052;-47
2023/09/05 09:33:37;;;;;;;5.40;2.92;;;23.00;61.00;;;;;;4926112;29;20059;-45
2023/09/05 09:36:04;;;;;;;4.63;2.70;;;23.00;60.40;;;;;;4927266;29;20408;-46
2023/09/05 09:38:30;;;;;;;6.80;3.25;;;23.00;60.50;;;;;;4931402;29;20028;-49
2023/09/05 09:41:00;;;;;;;6.60;3.47;;;23.00;60.60;;;;;;4930391;29;20028;-45
2023/09/05 09:43:36;;;;;;;7.88;3.35;;;23.00;60.60;;;;;;4928383;29;20035;-47
2023/09/05 09:46:04;;;;;;;8.30;3.10;;;23.00;60.60;;;;;;4927304;29;20396;-51
2023/09/05 09:48:33;;;;;;;7.25;2.92;;;23.00;60.70;;;;;;4931305;29;20106;-48
2023/09/05 09:51:00;;;;;;;6.93;3.05;;;23.00;60.50;;;;;;4928910;29;20403;-47
2023/09/05 09:53:34;;;;;;;7.22;2.80;;;23.00;60.80;;;;;;4929155;29;20024;-49
2023/09/05 09:56:07;;;;;;;7.32;3.28;;;23.00;60.80;;;;;;4927954;29;20043;-50
2023/09/05 09:58:34;;;;;;;10.77;4.80;;;23.00;61.00;;;;;;4931363;29;20024;-47
2023/09/05 10:01:02;;;;;;;14.02;3.95;;;23.00;61.00;;;;;;4929351;29;20038;-48
2023/09/05 10:03:28;;;;;;;9.75;3.55;;;23.00;61.00;;;;;;4929252;29;20036;-46
2023/09/05 10:05:55;;;;;;;9.60;3.60;;;23.00;61.00;;;;;;4927198;29;20032;-46
2023/09/05 10:08:21;;;;;;;7.65;3.22;;;23.00;60.90;;;;;;4931181;29;20023;-47
2023/09/05 10:10:47;;;;;;;10.98;3.85;;;23.00;61.00;;;;;;4929816;29;20503;-47
2023/09/05 10:13:15;;;;;;;5.22;3.20;;;23.00;61.30;;;;;;4929871;29;20032;-45
2023/09/05 10:15:41;;;;;;;6.75;3.13;;;23.00;61.60;;;;;;4929229;29;20032;-50
2023/09/05 10:18:12;;;;;;;7.63;3.40;;;23.00;61.50;;;;;;4930292;29;20040;-45
2023/09/05 10:20:40;;;;;;;5.53;3.20;;;23.00;61.50;;;;;;4923820;29;20323;-48
2023/09/05 10:23:06;;;;;;;12.07;3.42;;;23.00;61.80;;;;;;4916128;29;20118;-46
2023/09/05 10:25:37;;;;;;;8.80;3.13;;;23.00;62.20;;;;;;4916835;29;20024;-46
2023/09/05 10:28:03;;;;;;;10.52;3.40;;;23.00;62.00;;;;;;4914991;29;20036;-45
2023/09/05 10:30:29;;;;;;;6.68;3.47;;;23.10;62.10;;;;;;4925595;29;20036;-48
2023/09/05 10:32:57;;;;;;;6.72;3.40;;;23.00;62.30;;;;;;4917490;29;20412;-45
2023/09/05 10:35:23;;;;;;;5.10;2.88;;;23.10;62.30;;;;;;4922129;29;20036;-48
2023/09/05 10:37:51;;;;;;;6.10;2.92;;;23.00;62.20;;;;;;4916450;29;20381;-54
2023/09/05 10:40:18;;;;;;;5.43;2.50;;;23.00;62.10;;;;;;4930774;29;20400;-52
2023/09/05 10:42:48;;;;;;;5.40;3.00;;;23.00;61.90;;;;;;4915863;29;20070;-54
2023/09/05 10:45:23;;;;;;;10.25;2.83;;;23.00;61.90;;;;;;4930913;29;20039;-53
2023/09/05 10:47:50;;;;;;;10.00;2.55;;;23.00;61.80;;;;;;4915614;29;20115;-56
2023/09/05 10:50:20;;;;;;;6.18;2.70;;;23.00;61.90;;;;;;4946467;29;20071;-52
2023/09/05 10:52:49;;;;;;;8.15;2.72;;;23.00;61.60;;;;;;4915672;29;20032;-51
2023/09/05 10:55:25;;;;;;;4.27;2.80;;;23.00;62.30;;;;;;4923569;29;20030;-53
2023/09/05 10:57:51;;;;;;;9.60;2.92;;;23.00;62.60;;;;;;4930090;29;20436;-52
2023/09/05 11:00:17;;;;;;;6.93;3.13;;;22.90;62.40;;;;;;4931187;29;20108;-48
2023/09/05 11:02:44;;;;;;;9.23;2.90;;;22.80;62.90;;;;;;4915469;29;20472;-50
2023/09/05 11:05:20;;;;;;;7.20;3.00;;;22.80;62.80;;;;;;4923280;29;20444;-53
2023/09/05 11:07:50;;;;;;;6.85;3.03;;;22.80;63.30;;;;;;4915642;29;20032;-55
2023/09/05 11:10:30;;;;;;;5.32;3.00;;;22.80;63.40;;;;;;4929458;29;20028;-50
2023/09/05 11:13:06;;;;;;;7.45;2.90;;;22.80;63.60;;;;;;4915182;29;20048;-55
2023/09/05 11:15:35;;;;;;;6.18;2.47;;;22.80;64.00;;;;;;4915367;29;20036;-47
2023/09/05 11:18:06;;;;;;;5.20;2.55;;;22.80;63.50;;;;;;4913648;29;20024;-52
2023/09/05 11:20:42;;;;;;;8.32;2.90;;;22.80;63.40;;;;;;4914926;29;20028;-50
2023/09/05 11:23:20;;;;;;;6.18;2.75;;;22.80;63.60;;;;;;4915373;29;20459;-47
2023/09/05 11:25:49;;;;;;;8.20;3.15;;;22.80;63.80;;;;;;4920815;29;20046;-52
2023/09/05 11:28:16;;;;;;;12.05;3.47;;;22.80;63.70;;;;;;4915750;29;20035;-46
2023/09/05 11:30:46;;;;;;;9.85;3.17;;;22.80;63.90;;;;;;4929187;29;20069;-55
2023/09/05 11:33:14;;;;;;;5.22;2.75;;;22.90;63.40;;;;;;4915371;29;20035;-49
2023/09/05 11:35:41;;;;;;;9.32;4.00;;;22.90;62.70;;;;;;4921213;29;20099;-48
2023/09/05 11:38:11;;;;;;;11.48;5.95;;;22.90;62.30;;;;;;4913055;29;20040;-46
2023/09/05 11:41:10;;;;;;;14.70;6.03;;;23.00;62.10;;;;;;4915368;29;20036;-49
2023/09/05 11:43:54;;;;;;;10.80;5.28;;;23.00;61.90;;;;;;4907599;29;20048;-53
2023/09/05 11:46:41;;;;;;;10.88;4.85;;;23.00;61.60;;;;;;4917037;29;20055;-52
2023/09/05 11:49:07;;;;;;;8.18;4.22;;;23.10;62.40;;;;;;4921365;29;20497;-48
2023/09/05 11:51:33;;;;;;;17.75;4.60;;;23.10;61.90;;;;;;4923117;29;20108;-49
2023/09/05 11:53:59;;;;;;;8.73;4.43;;;23.10;62.20;;;;;;4920287;29;20039;-45
2023/09/05 11:56:25;;;;;;;14.80;4.32;;;23.10;62.00;;;;;;4916362;29;20039;-47
2023/09/05 11:58:51;;;;;;;8.10;3.78;;;23.10;61.90;;;;;;4918943;29;20403;-49
2023/09/05 12:01:27;;;;;;;10.80;4.05;;;23.10;62.20;;;;;;4925903;29;20099;-47
2023/09/05 12:04:03;;;;;;;6.45;3.50;;;23.10;61.70;;;;;;4918755;29;20298;-46
2023/09/05 12:06:34;;;;;;;9.65;4.30;;;23.10;61.60;;;;;;4916304;29;20500;-47
2023/09/05 12:09:00;;;;;;;9.27;4.50;;;23.10;62.50;;;;;;4918784;29;20027;-47
2023/09/05 12:11:26;;;;;;;5.78;3.25;;;23.10;61.50;;;;;;4924867;29;20060;-52
2023/09/05 12:13:56;;;;;;;7.07;3.95;;;23.10;61.30;;;;;;4917855;29;20315;-48
2023/09/05 12:16:22;;;;;;;10.85;4.03;;;23.10;61.40;;;;;;4917910;28;20119;-49
2023/09/05 12:18:49;;;;;;;7.68;3.67;;;23.10;61.30;;;;;;4916452;29;20114;-51
2023/09/05 12:21:15;;;;;;;5.75;3.15;;;23.00;61.20;;;;;;4926769;29;20064;-50
2023/09/05 12:23:41;;;;;;;6.85;3.40;;;23.10;61.30;;;;;;4915728;29;20496;-52
2023/09/05 12:26:07;;;;;;;7.28;3.00;;;23.10;61.30;;;;;;4919972;29;20425;-49
2023/09/05 12:28:34;;;;;;;6.30;2.72;;;23.10;61.40;;;;;;4913789;29;20024;-46
2023/09/05 12:31:12;;;;;;;6.47;2.78;;;23.10;61.50;;;;;;4928537;29;20032;-47
2023/09/05 12:33:38;;;;;;;5.25;2.70;;;23.10;61.70;;;;;;4919183;29;20048;-51
2023/09/05 12:36:04;;;;;;;5.72;2.40;;;23.10;61.70;;;;;;4920814;29;20036;-50
2023/09/05 12:38:30;;;;;;;5.90;2.97;;;23.10;61.10;;;;;;4913886;29;20051;-49
2023/09/05 12:40:59;;;;;;;4.53;2.65;;;23.10;61.30;;;;;;4929315;29;20039;-55
2023/09/05 12:43:25;;;;;;;7.85;3.55;;;23.10;61.80;;;;;;4914031;29;20043;-54
2023/09/05 12:45:51;;;;;;;8.27;2.58;;;23.10;61.50;;;;;;4921322;29;20111;-54
2023/09/05 12:48:17;;;;;;;8.90;3.38;;;23.20;61.50;;;;;;4913730;29;20076;-53
2023/09/05 12:50:45;;;;;;;6.82;3.00;;;23.20;61.30;;;;;;4928876;29;20024;-48
2023/09/05 12:53:11;;;;;;;8.20;3.22;;;23.20;61.50;;;;;;4912065;29;20059;-55